createdAt,value
2018-07-05T00:00:48.050Z,98410.52
2018-07-05T00:03:27.658Z,98420.99
2018-07-05T00:06:07.279Z,98415.60
2018-07-05T00:08:46.842Z,98416.13
2018-07-05T00:11:26.438Z,98410.09
2018-07-05T00:14:06.269Z,98405.39
2018-07-05T00:16:45.995Z,98413.71
2018-07-05T00:19:25.675Z,98412.70
2018-07-05T00:22:05.394Z,98416.08
2018-07-05T00:24:45.234Z,98406.84
2018-07-05T00:27:25.054Z,98405.76
2018-07-05T00:30:04.773Z,98412.00
2018-07-05T00:32:44.681Z,98413.59
2018-07-05T00:35:24.321Z,98407.22
2018-07-05T00:38:04.154Z,98407.77
2018-07-05T00:40:43.836Z,98408.30
2018-07-05T00:43:23.558Z,98404.84
2018-07-05T00:46:03.286Z,98401.88
2018-07-05T00:48:43.146Z,98395.14
2018-07-05T00:51:23.019Z,98397.66
2018-07-05T00:54:02.772Z,98402.35
2018-07-05T00:56:42.485Z,98397.33
2018-07-05T00:59:22.178Z,98396.87
2018-07-05T01:02:01.803Z,98403.17
2018-07-05T01:04:41.479Z,98405.77
2018-07-05T01:07:21.249Z,98405.28
2018-07-05T01:10:01.046Z,98404.95
2018-07-05T01:12:40.902Z,98403.38
2018-07-05T01:15:20.590Z,98406.48
2018-07-05T01:18:00.224Z,98403.23
2018-07-05T01:20:39.894Z,98411.34
2018-07-05T01:23:19.693Z,98419.02
2018-07-05T01:25:59.431Z,98418.56
2018-07-05T01:28:39.112Z,98421.18
2018-07-05T01:31:18.811Z,98420.26
2018-07-05T01:33:58.413Z,98424.19
2018-07-05T01:36:38.050Z,98423.02
2018-07-05T01:39:17.827Z,98424.61
2018-07-05T01:41:57.537Z,98416.37
2018-07-05T01:44:37.265Z,98417.67
2018-07-05T01:47:17.031Z,98414.62
2018-07-05T01:49:56.797Z,98409.33
2018-07-05T01:52:39.042Z,98411.09
2018-07-05T01:55:18.679Z,98412.87
2018-07-05T01:57:58.570Z,98406.66
2018-07-05T02:00:38.649Z,98405.77
2018-07-05T02:03:18.302Z,98406.92
2018-07-05T02:05:57.906Z,98405.39
2018-07-05T02:08:37.523Z,98401.65
2018-07-05T02:11:17.223Z,98396.12
2018-07-05T02:13:56.982Z,98391.00
2018-07-05T02:16:36.748Z,98390.74
2018-07-05T02:19:16.435Z,98389.28
2018-07-05T02:21:56.115Z,98387.80
2018-07-05T02:24:35.884Z,98385.83
2018-07-05T02:27:15.454Z,98391.63
2018-07-05T02:29:55.058Z,98394.14
2018-07-05T02:32:34.572Z,98393.86
2018-07-05T02:35:14.235Z,98400.49
2018-07-05T02:37:59.493Z,98398.92
2018-07-05T02:40:39.012Z,98394.44
2018-07-05T02:43:18.597Z,98392.73
2018-07-05T02:45:58.193Z,98398.66
2018-07-05T02:48:37.935Z,98403.44
2018-07-05T02:51:17.670Z,98401.42
2018-07-05T02:53:57.189Z,98400.30
2018-07-05T02:56:36.919Z,98395.73
2018-07-05T02:59:16.663Z,98402.89
2018-07-05T03:01:56.506Z,98396.48
2018-07-05T03:04:36.310Z,98399.78
2018-07-05T03:07:15.964Z,98402.72
2018-07-05T03:09:55.774Z,98402.55
2018-07-05T03:12:35.272Z,98398.49
2018-07-05T03:15:14.835Z,98395.95
2018-07-05T03:17:54.549Z,98393.86
2018-07-05T03:20:34.271Z,98405.19
2018-07-05T03:23:14.031Z,98404.58
2018-07-05T03:25:53.853Z,98404.84
2018-07-05T03:28:33.739Z,98412.55
2018-07-05T03:31:13.514Z,98421.45
2018-07-05T03:33:53.330Z,98426.94
2018-07-05T03:36:33.159Z,98426.81
2018-07-05T03:39:12.982Z,98424.23
2018-07-05T03:41:52.763Z,98425.55
2018-07-05T03:44:32.363Z,98423.36
2018-07-05T03:47:11.904Z,98422.00
2018-07-05T03:49:51.442Z,98418.95
2018-07-05T03:52:31.140Z,98424.46
2018-07-05T03:55:10.910Z,98425.86
2018-07-05T03:57:50.715Z,98423.48
2018-07-05T04:00:30.458Z,98426.97
2018-07-05T04:03:10.223Z,98427.66
2018-07-05T04:05:49.994Z,98430.23
2018-07-05T04:08:29.602Z,98431.94
2018-07-05T04:11:09.290Z,98435.73
2018-07-05T04:13:48.903Z,98428.89
2018-07-05T04:16:28.678Z,98430.56
2018-07-05T04:19:08.435Z,98424.39
2018-07-05T04:21:48.190Z,98428.05
2018-07-05T04:24:27.955Z,98425.86
2018-07-05T04:27:07.548Z,98430.35
2018-07-05T04:29:47.128Z,98417.00
2018-07-05T04:32:26.914Z,98417.23
2018-07-05T04:35:06.487Z,98413.98
2018-07-05T04:37:46.137Z,98419.39
2018-07-05T04:40:25.519Z,98420.62
2018-07-05T04:43:05.283Z,98410.97
2018-07-05T04:45:44.977Z,98411.45
2018-07-05T04:48:24.498Z,98413.19
2018-07-05T04:51:03.937Z,98416.32
2018-07-05T04:53:43.545Z,98418.97
2018-07-05T04:56:28.061Z,98418.35
2018-07-05T04:59:07.610Z,98409.33
2018-07-05T05:01:47.420Z,98403.30
2018-07-05T05:04:27.218Z,98407.59
2018-07-05T05:07:06.967Z,98410.00
2018-07-05T05:09:46.661Z,98410.33
2018-07-05T05:12:26.212Z,98409.59
2018-07-05T05:15:05.904Z,98409.69
2018-07-05T05:17:45.665Z,98411.98
2018-07-05T05:20:25.211Z,98411.97
2018-07-05T05:23:04.987Z,98411.11
2018-07-05T05:25:45.603Z,98409.25
2018-07-05T05:28:25.356Z,98414.35
2018-07-05T05:31:05.926Z,98409.88
2018-07-05T05:33:45.658Z,98414.66
2018-07-05T05:36:25.425Z,98414.75
2018-07-05T05:39:05.538Z,98414.54
2018-07-05T05:41:45.057Z,98426.72
2018-07-05T05:44:24.796Z,98436.44
2018-07-05T05:47:06.530Z,98440.47
2018-07-05T05:49:46.302Z,98447.04
2018-07-05T05:52:26.020Z,98439.73
2018-07-05T05:55:06.094Z,98435.53
2018-07-05T05:57:46.211Z,98438.56
2018-07-05T06:00:26.015Z,98440.30
2018-07-05T06:03:05.861Z,98438.59
2018-07-05T06:05:45.490Z,98436.71
2018-07-05T06:08:26.010Z,98442.84
2018-07-05T06:11:05.882Z,98443.63
2018-07-05T06:13:45.598Z,98446.70
2018-07-05T06:16:25.247Z,98442.10
2018-07-05T06:19:04.915Z,98441.38
2018-07-05T06:21:44.571Z,98431.86
2018-07-05T06:24:24.354Z,98434.23
2018-07-05T06:27:03.915Z,98438.84
2018-07-05T06:29:43.582Z,98436.72
2018-07-05T06:32:23.214Z,98428.56
2018-07-05T06:35:02.778Z,98438.65
2018-07-05T06:37:42.437Z,98425.71
2018-07-05T06:40:21.992Z,98427.06
2018-07-05T06:43:01.435Z,98429.63
2018-07-05T06:45:41.143Z,98434.73
2018-07-05T06:48:20.791Z,98436.67
2018-07-05T06:51:00.330Z,98437.25
2018-07-05T06:53:39.997Z,98437.25
2018-07-05T06:56:19.840Z,98436.16
2018-07-05T06:58:59.557Z,98440.82
2018-07-05T07:01:39.390Z,98437.16
2018-07-05T07:04:18.998Z,98433.42
2018-07-05T07:06:58.804Z,98429.09
2018-07-05T07:09:38.496Z,98432.87
2018-07-05T07:12:18.098Z,98431.47
2018-07-05T07:14:57.762Z,98432.16
2018-07-05T07:17:37.413Z,98433.13
2018-07-05T07:20:16.943Z,98429.86
2018-07-05T07:22:56.516Z,98433.36
2018-07-05T07:25:36.118Z,98429.65
2018-07-05T07:28:15.618Z,98423.09
2018-07-05T07:30:55.443Z,98426.85
2018-07-05T07:33:35.203Z,98431.11
2018-07-05T07:36:15.010Z,98421.42
2018-07-05T07:38:54.797Z,98418.77
2018-07-05T07:41:34.408Z,98407.17
2018-07-05T07:44:01.648Z,98419.53
2018-07-05T07:46:28.872Z,98425.50
2018-07-05T07:48:56.076Z,98414.91
2018-07-05T07:51:23.931Z,98412.70
2018-07-05T07:53:51.135Z,98412.32
2018-07-05T07:56:18.458Z,98411.72
2018-07-05T07:58:45.646Z,98414.28
2018-07-05T08:01:12.851Z,98417.19
2018-07-05T08:03:40.820Z,98412.98
2018-07-05T08:06:08.025Z,98408.59
2018-07-05T08:08:35.251Z,98409.13
2018-07-05T08:11:02.443Z,98413.42
2018-07-05T08:13:29.694Z,98406.55
2018-07-05T08:15:56.946Z,98404.59
2018-07-05T08:18:24.174Z,98398.95
2018-07-05T08:20:51.361Z,98397.23
2018-07-05T08:23:18.587Z,98391.20
2018-07-05T08:25:45.770Z,98395.16
2018-07-05T08:28:13.030Z,98392.58
2018-07-05T08:30:40.214Z,98390.83
2018-07-05T08:33:07.437Z,98395.40
2018-07-05T08:35:34.624Z,98393.41
2018-07-05T08:38:01.846Z,98393.16
2018-07-05T08:40:29.042Z,98388.18
2018-07-05T08:42:56.271Z,98380.79
2018-07-05T08:45:23.466Z,98384.58
2018-07-05T08:47:50.681Z,98376.87
2018-07-05T08:50:17.863Z,98385.70
2018-07-05T08:52:45.082Z,98385.36
2018-07-05T08:55:12.266Z,98387.45
2018-07-05T08:57:39.483Z,98381.20
2018-07-05T09:00:07.262Z,98384.98
2018-07-05T09:02:34.486Z,98381.31
2018-07-05T09:05:01.671Z,98373.45
2018-07-05T09:07:28.894Z,98377.13
2018-07-05T09:09:56.135Z,98376.79
2018-07-05T09:12:23.343Z,98376.83
2018-07-05T09:14:50.539Z,98373.61
2018-07-05T09:17:17.769Z,98382.30
2018-07-05T09:19:44.955Z,98374.93
2018-07-05T09:22:12.147Z,98376.39
2018-07-05T09:24:39.388Z,98380.31
2018-07-05T09:27:06.570Z,98371.23
2018-07-05T09:29:33.786Z,98376.70
2018-07-05T09:32:00.962Z,98377.70
2018-07-05T09:34:28.182Z,98376.81
2018-07-05T09:36:55.361Z,98370.41
2018-07-05T09:39:22.578Z,98370.89
2018-07-05T09:41:49.771Z,98365.19
2018-07-05T09:44:17.586Z,98365.84
2018-07-05T09:46:44.766Z,98360.20
2018-07-05T09:49:12.196Z,98363.91
2018-07-05T09:51:39.378Z,98354.37
2018-07-05T09:54:06.590Z,98350.80
2018-07-05T09:56:33.787Z,98359.84
2018-07-05T09:59:01.010Z,98361.25
2018-07-05T10:01:28.291Z,98364.59
2018-07-05T10:03:55.516Z,98355.47
2018-07-05T10:06:22.700Z,98353.41
2018-07-05T10:08:49.923Z,98343.34
2018-07-05T10:11:17.110Z,98348.80
2018-07-05T10:13:44.447Z,98348.63
2018-07-05T10:16:11.527Z,98352.45
2018-07-05T10:18:38.756Z,98348.77
2018-07-05T10:21:05.959Z,98350.84
2018-07-05T10:23:33.187Z,98349.03
2018-07-05T10:26:00.374Z,98341.32
2018-07-05T10:28:27.607Z,98338.61
2018-07-05T10:31:07.204Z,98343.30
2018-07-05T10:33:45.445Z,98338.69
2018-07-05T10:36:12.630Z,98343.90
2018-07-05T10:38:39.851Z,98340.07
2018-07-05T10:41:19.334Z,98336.97
2018-07-05T10:43:58.983Z,98338.89
2018-07-05T10:46:38.664Z,98333.72
2018-07-05T10:49:18.310Z,98328.06
2018-07-05T10:51:58.078Z,98330.80
2018-07-05T10:54:37.713Z,98327.20
2018-07-05T10:57:17.654Z,98331.94
2018-07-05T10:59:57.421Z,98338.31
2018-07-05T11:02:37.202Z,98322.61
2018-07-05T11:05:16.934Z,98329.39
2018-07-05T11:07:56.569Z,98337.43
2018-07-05T11:10:36.384Z,98341.27
2018-07-05T11:13:15.912Z,98336.09
2018-07-05T11:15:55.586Z,98331.16
2018-07-05T11:18:35.262Z,98331.39
2018-07-05T11:21:14.887Z,98329.28
2018-07-05T11:23:54.657Z,98330.74
2018-07-05T11:26:34.354Z,98329.94
2018-07-05T11:29:14.091Z,98329.80
2018-07-05T11:31:53.835Z,98323.89
2018-07-05T11:34:33.607Z,98319.41
2018-07-05T11:37:13.334Z,98312.10
2018-07-05T11:39:53.044Z,98320.97
2018-07-05T11:42:33.063Z,98315.27
2018-07-05T11:45:12.694Z,98317.72
2018-07-05T11:47:52.504Z,98319.24
2018-07-05T11:50:32.096Z,98316.47
2018-07-05T11:53:11.702Z,98305.17
2018-07-05T11:55:51.397Z,98308.64
2018-07-05T11:58:31.226Z,98310.37
2018-07-05T12:01:10.864Z,98312.23
2018-07-05T12:03:50.679Z,98309.77
2018-07-05T12:06:30.310Z,98315.29
2018-07-05T12:09:10.395Z,98318.02
2018-07-05T12:11:50.711Z,98312.63
2018-07-05T12:14:30.357Z,98310.26
2018-07-05T12:17:10.179Z,98312.45
2018-07-05T12:19:49.818Z,98309.84
2018-07-05T12:22:29.486Z,98310.78
2018-07-05T12:25:09.131Z,98305.52
2018-07-05T12:27:49.018Z,98311.52
2018-07-05T12:30:28.841Z,98314.16
2018-07-05T12:33:08.423Z,98310.09
2018-07-05T12:35:48.185Z,98316.63
2018-07-05T12:38:27.640Z,98313.14
2018-07-05T12:41:07.310Z,98311.42
2018-07-05T12:43:47.033Z,98315.08
2018-07-05T12:46:26.746Z,98311.09
2018-07-05T12:49:06.643Z,98309.73
2018-07-05T12:51:46.204Z,98303.17
2018-07-05T12:54:25.904Z,98303.86
2018-07-05T12:57:05.746Z,98305.89
2018-07-05T12:59:45.367Z,98302.81
2018-07-05T13:02:25.262Z,98301.49
2018-07-05T13:05:04.819Z,98295.32
2018-07-05T13:07:44.790Z,98304.55
2018-07-05T13:10:24.356Z,98307.30
2018-07-05T13:13:03.928Z,98303.19
2018-07-05T13:15:43.738Z,98305.52
2018-07-05T13:18:23.452Z,98303.65
2018-07-05T13:21:03.065Z,98302.54
2018-07-05T13:23:42.786Z,98302.82
2018-07-05T13:26:22.539Z,98314.71
2018-07-05T13:29:02.254Z,98308.80
2018-07-05T13:31:41.982Z,98318.05
2018-07-05T13:34:21.719Z,98308.88
2018-07-05T13:37:01.488Z,98305.70
2018-07-05T13:39:41.175Z,98329.26
2018-07-05T13:42:20.995Z,98318.50
2018-07-05T13:45:00.674Z,98320.34
2018-07-05T13:47:40.272Z,98325.37
2018-07-05T13:50:21.081Z,98327.80
2018-07-05T13:53:00.654Z,98326.57
2018-07-05T13:55:40.310Z,98328.66
2018-07-05T13:58:19.928Z,98323.86
2018-07-05T14:00:59.467Z,98325.80
2018-07-05T14:03:39.233Z,98321.16
2018-07-05T14:06:18.950Z,98315.21
2018-07-05T14:08:58.746Z,98317.66
2018-07-05T14:11:38.376Z,98313.88
2018-07-05T14:14:18.077Z,98315.39
2018-07-05T14:16:57.639Z,98310.30
2018-07-05T14:19:37.414Z,98309.19
2018-07-05T14:22:17.359Z,98313.58
2018-07-05T14:24:56.990Z,98326.89
2018-07-05T14:27:36.855Z,98339.16
2018-07-05T14:30:16.678Z,98334.77
2018-07-05T14:32:56.448Z,98336.22
2018-07-05T14:35:36.198Z,98329.59
2018-07-05T14:38:15.901Z,98322.22
2018-07-05T14:40:55.581Z,98331.23
2018-07-05T14:43:35.372Z,98323.48
2018-07-05T14:46:15.103Z,98319.48
2018-07-05T14:48:54.924Z,98324.91
2018-07-05T14:51:34.652Z,98328.72
2018-07-05T14:54:14.348Z,98330.19
2018-07-05T14:56:53.974Z,98326.41
2018-07-05T14:59:33.714Z,98326.98
2018-07-05T15:02:13.709Z,98322.30
2018-07-05T15:04:53.595Z,98333.02
2018-07-05T15:07:33.286Z,98330.00
2018-07-05T15:10:13.224Z,98330.76
2018-07-05T15:12:53.091Z,98325.39
2018-07-05T15:15:32.982Z,98329.91
2018-07-05T15:18:12.789Z,98327.66
2018-07-05T15:20:52.559Z,98329.53
2018-07-05T15:23:32.305Z,98328.41
2018-07-05T15:26:12.184Z,98335.50
2018-07-05T15:28:52.021Z,98325.81
2018-07-05T15:31:31.811Z,98332.67
2018-07-05T15:34:11.871Z,98327.64
2018-07-05T15:36:51.584Z,98342.80
2018-07-05T15:39:31.359Z,98335.40
2018-07-05T15:42:11.319Z,98333.16
2018-07-05T15:44:51.236Z,98329.53
2018-07-05T15:47:31.088Z,98342.21
2018-07-05T15:50:10.863Z,98338.47
2018-07-05T15:52:50.473Z,98330.59
2018-07-05T15:55:30.193Z,98329.05
2018-07-05T15:58:09.883Z,98328.23
2018-07-05T16:00:49.498Z,98329.11
2018-07-05T16:03:29.031Z,98326.00
2018-07-05T16:06:08.706Z,98327.74
2018-07-05T16:08:48.250Z,98327.00
2018-07-05T16:11:27.830Z,98329.55
2018-07-05T16:14:07.639Z,98325.77
2018-07-05T16:16:47.247Z,98326.86
2018-07-05T16:19:26.908Z,98324.06
2018-07-05T16:22:06.645Z,98323.31
2018-07-05T16:24:46.306Z,98325.17
2018-07-05T16:27:25.886Z,98320.58
2018-07-05T16:30:05.435Z,98321.41
2018-07-05T16:32:45.066Z,98311.55
2018-07-05T16:35:25.004Z,98311.36
2018-07-05T16:38:05.010Z,98303.60
2018-07-05T16:40:45.059Z,98300.77
2018-07-05T16:43:24.948Z,98314.82
2018-07-05T16:46:04.703Z,98311.25
2018-07-05T16:48:44.909Z,98320.91
2018-07-05T16:51:24.770Z,98313.28
2018-07-05T16:54:04.509Z,98312.13
2018-07-05T16:56:44.262Z,98312.26
2018-07-05T16:59:24.166Z,98311.21
2018-07-05T17:02:03.856Z,98316.99
2018-07-05T17:04:43.725Z,98320.44
2018-07-05T17:07:23.512Z,98320.27
2018-07-05T17:10:03.250Z,98316.10
2018-07-05T17:12:42.976Z,98318.15
2018-07-05T17:15:22.619Z,98325.06
2018-07-05T17:18:02.377Z,98327.83
2018-07-05T17:20:42.159Z,98334.84
2018-07-05T17:23:22.176Z,98334.30
2018-07-05T17:26:01.856Z,98330.23
2018-07-05T17:28:41.498Z,98346.22
2018-07-05T17:31:21.205Z,98345.67
2018-07-05T17:34:00.820Z,98352.01
2018-07-05T17:36:40.590Z,98350.66
2018-07-05T17:39:20.367Z,98353.70
2018-07-05T17:42:00.085Z,98356.78
2018-07-05T17:44:39.906Z,98355.33
2018-07-05T17:47:19.594Z,98360.86
2018-07-05T17:49:59.410Z,98361.46
2018-07-05T17:52:38.960Z,98365.60
2018-07-05T17:55:18.989Z,98371.53
2018-07-05T17:57:58.937Z,98378.78
2018-07-05T18:00:41.698Z,98385.04
2018-07-05T18:03:22.400Z,98380.82
2018-07-05T18:06:02.190Z,98396.69
2018-07-05T18:08:41.912Z,98395.56
2018-07-05T18:11:21.573Z,98397.92
2018-07-05T18:14:02.406Z,98403.27
2018-07-05T18:16:42.261Z,98406.80
2018-07-05T18:19:22.281Z,98399.95
2018-07-05T18:22:02.914Z,98404.17
2018-07-05T18:24:42.742Z,98410.16
2018-07-05T18:27:25.037Z,98409.89
2018-07-05T18:30:04.979Z,98411.80
2018-07-05T18:32:44.748Z,98414.53
2018-07-05T18:35:24.518Z,98408.89
2018-07-05T18:38:04.363Z,98407.67
2018-07-05T18:40:44.314Z,98408.01
2018-07-05T18:43:23.768Z,98411.62
2018-07-05T18:46:12.558Z,98409.96
2018-07-05T18:48:52.041Z,98416.59
2018-07-05T18:51:31.621Z,98414.40
2018-07-05T18:54:11.318Z,98410.12
2018-07-05T18:56:51.140Z,98409.53
2018-07-05T18:59:31.030Z,98412.19
2018-07-05T19:02:10.655Z,98413.30
2018-07-05T19:04:50.358Z,98425.14
2018-07-05T19:07:30.042Z,98427.69
2018-07-05T19:10:09.851Z,98427.73
2018-07-05T19:12:49.511Z,98434.64
2018-07-05T19:15:29.386Z,98431.08
2018-07-05T19:18:09.022Z,98441.08
2018-07-05T19:20:48.749Z,98442.52
2018-07-05T19:23:28.438Z,98446.14
2018-07-05T19:26:08.423Z,98449.22
2018-07-05T19:28:47.971Z,98448.50
2018-07-05T19:31:29.518Z,98444.41
2018-07-05T19:34:09.476Z,98449.33
2018-07-05T19:36:49.206Z,98455.83
2018-07-05T19:39:28.850Z,98457.01
2018-07-05T19:42:08.377Z,98463.53
2018-07-05T19:44:48.114Z,98469.91
2018-07-05T19:47:27.924Z,98469.56
2018-07-05T19:50:07.822Z,98477.45
2018-07-05T19:52:47.569Z,98475.61
2018-07-05T19:55:27.138Z,98471.23
2018-07-05T19:58:07.702Z,98479.87
2018-07-05T20:00:47.380Z,98487.38
2018-07-05T20:03:27.250Z,98498.64
2018-07-05T20:06:06.982Z,98496.53
2018-07-05T20:08:46.685Z,98488.72
2018-07-05T20:11:26.453Z,98488.29
2018-07-05T20:14:06.138Z,98496.06
2018-07-05T20:16:45.778Z,98500.06
2018-07-05T20:19:25.558Z,98495.81
2018-07-05T20:22:09.599Z,98501.83
2018-07-05T20:24:49.313Z,98502.96
2018-07-05T20:27:29.057Z,98505.72
2018-07-05T20:30:08.732Z,98503.79
2018-07-05T20:32:48.704Z,98519.68
2018-07-05T20:35:28.572Z,98521.63
2018-07-05T20:38:08.078Z,98527.16
2018-07-05T20:40:47.685Z,98534.73
2018-07-05T20:43:27.307Z,98533.50
2018-07-05T20:46:06.986Z,98539.73
2018-07-05T20:48:46.619Z,98542.16
2018-07-05T20:51:26.253Z,98533.41
2018-07-05T20:54:06.102Z,98538.47
2018-07-05T20:56:45.870Z,98543.54
2018-07-05T20:59:25.601Z,98548.55
2018-07-05T21:02:05.167Z,98565.44
2018-07-05T21:04:44.770Z,98559.17
2018-07-05T21:07:24.345Z,98554.48
2018-07-05T21:10:03.906Z,98567.03
2018-07-05T21:12:43.545Z,98565.80
2018-07-05T21:15:23.277Z,98564.34
2018-07-05T21:18:03.139Z,98574.27
2018-07-05T21:20:42.915Z,98573.53
2018-07-05T21:23:22.497Z,98575.19
2018-07-05T21:26:02.252Z,98581.66
2018-07-05T21:28:41.976Z,98577.93
2018-07-05T21:31:21.658Z,98571.97
2018-07-05T21:34:01.284Z,98580.42
2018-07-05T21:36:41.044Z,98590.11
2018-07-05T21:39:21.059Z,98592.53
2018-07-05T21:42:00.874Z,98595.23
2018-07-05T21:44:40.746Z,98598.10
2018-07-05T21:47:20.431Z,98605.02
2018-07-05T21:50:00.103Z,98606.48
2018-07-05T21:52:39.880Z,98610.02
2018-07-05T21:55:19.617Z,98616.66
2018-07-05T21:57:59.358Z,98627.98
2018-07-05T22:00:39.254Z,98620.38
2018-07-05T22:03:19.089Z,98615.63
2018-07-05T22:05:58.775Z,98625.59
2018-07-05T22:08:38.363Z,98631.23
2018-07-05T22:11:17.931Z,98629.66
2018-07-05T22:13:57.514Z,98641.91
2018-07-05T22:16:41.371Z,98639.68
2018-07-05T22:19:26.637Z,98645.41
2018-07-05T22:22:11.689Z,98650.61
2018-07-05T22:24:56.712Z,98648.00
2018-07-05T22:27:41.698Z,98649.67
2018-07-05T22:30:26.746Z,98653.08
2018-07-05T22:33:06.351Z,98653.69
2018-07-05T22:35:46.073Z,98655.67
2018-07-05T22:38:25.777Z,98662.62
2018-07-05T22:41:05.578Z,98658.58
2018-07-05T22:43:45.399Z,98663.80
2018-07-05T22:46:25.079Z,98664.89
2018-07-05T22:49:04.709Z,98669.07
2018-07-05T22:51:44.319Z,98668.98
2018-07-05T22:54:23.987Z,98667.74
2018-07-05T22:57:03.569Z,98662.38
2018-07-05T22:59:43.226Z,98671.13
2018-07-05T23:02:22.918Z,98666.48
2018-07-05T23:05:02.547Z,98667.01
2018-07-05T23:07:42.186Z,98671.78
2018-07-05T23:10:21.929Z,98667.20
2018-07-05T23:13:01.607Z,98677.30
2018-07-05T23:15:41.329Z,98679.91
2018-07-05T23:18:21.174Z,98682.13
2018-07-05T23:21:00.870Z,98677.30
2018-07-05T23:23:40.518Z,98675.17
2018-07-05T23:26:20.299Z,98679.67
2018-07-05T23:29:00.138Z,98676.95
2018-07-05T23:31:39.905Z,98676.16
2018-07-05T23:34:19.418Z,98680.75
2018-07-05T23:36:59.431Z,98688.73
2018-07-05T23:39:39.293Z,98686.73
2018-07-05T23:42:19.083Z,98693.78
2018-07-05T23:44:58.954Z,98681.64
2018-07-05T23:47:38.666Z,98693.30
2018-07-05T23:50:18.858Z,98687.27
2018-07-05T23:52:58.522Z,98688.55
2018-07-05T23:55:38.301Z,98695.88
2018-07-05T23:58:17.838Z,98695.80
